createdAt,value
2017-10-16T00:02:32.300Z,17.24
2017-10-16T00:05:07.325Z,17.32
2017-10-16T00:07:42.949Z,17.23
2017-10-16T00:10:17.809Z,17.19
2017-10-16T00:12:52.652Z,17.15
2017-10-16T00:15:27.560Z,17.07
2017-10-16T00:18:02.713Z,17.06
2017-10-16T00:20:37.422Z,17.11
2017-10-16T00:23:12.277Z,17.11
2017-10-16T00:25:47.001Z,17.07
2017-10-16T00:28:21.733Z,17.05
2017-10-16T00:30:56.772Z,16.94
2017-10-16T00:33:31.417Z,17.04
2017-10-16T00:36:06.141Z,17.08
2017-10-16T00:38:40.969Z,17.01
2017-10-16T00:41:15.825Z,17.00
2017-10-16T00:43:50.549Z,16.97
2017-10-16T00:46:25.261Z,16.97
2017-10-16T00:48:59.911Z,16.95
2017-10-16T00:51:34.708Z,16.87
2017-10-16T00:54:09.889Z,16.87
2017-10-16T00:56:44.125Z,16.82
2017-10-16T00:59:18.613Z,16.87
2017-10-16T01:01:53.857Z,16.81
2017-10-16T01:04:28.577Z,16.75
2017-10-16T01:07:03.413Z,16.72
2017-10-16T01:09:38.049Z,16.65
2017-10-16T01:12:12.840Z,16.63
2017-10-16T01:14:47.661Z,16.59
2017-10-16T01:17:22.057Z,16.68
2017-10-16T01:19:56.706Z,16.63
2017-10-16T01:22:31.281Z,16.70
2017-10-16T01:25:06.051Z,16.67
2017-10-16T01:27:40.849Z,16.65
2017-10-16T01:30:15.276Z,16.68
2017-10-16T01:32:50.101Z,16.67
2017-10-16T01:35:24.962Z,16.68
2017-10-16T01:37:59.417Z,16.69
2017-10-16T01:40:34.300Z,16.66
2017-10-16T01:43:09.085Z,16.59
2017-10-16T01:45:43.960Z,16.53
2017-10-16T01:48:18.597Z,16.47
2017-10-16T01:50:53.545Z,16.38
2017-10-16T01:53:28.649Z,16.43
2017-10-16T01:56:02.908Z,16.41
2017-10-16T01:58:37.898Z,16.44
2017-10-16T02:01:12.092Z,16.42
2017-10-16T02:03:47.218Z,16.43
2017-10-16T02:06:21.685Z,16.38
2017-10-16T02:08:56.897Z,16.41
2017-10-16T02:11:31.766Z,16.33
2017-10-16T02:14:06.829Z,16.38
2017-10-16T02:16:41.677Z,16.34
2017-10-16T02:19:16.516Z,16.20
2017-10-16T02:21:51.074Z,16.01
2017-10-16T02:24:25.700Z,15.93
2017-10-16T02:27:00.485Z,15.92
2017-10-16T02:29:35.226Z,15.91
2017-10-16T02:32:10.169Z,15.84
2017-10-16T02:34:44.903Z,15.75
2017-10-16T02:37:19.833Z,15.64
2017-10-16T02:39:54.557Z,15.63
2017-10-16T02:42:29.359Z,15.60
2017-10-16T02:45:04.137Z,15.62
2017-10-16T02:47:39.016Z,15.65
2017-10-16T02:50:13.849Z,15.63
2017-10-16T02:52:49.658Z,15.60
2017-10-16T02:55:24.280Z,15.65
2017-10-16T02:57:58.922Z,15.67
2017-10-16T03:00:33.919Z,15.78
2017-10-16T03:03:08.733Z,15.87
2017-10-16T03:05:43.574Z,15.95
2017-10-16T03:08:18.388Z,15.94
2017-10-16T03:10:53.236Z,15.95
2017-10-16T03:13:28.078Z,15.87
2017-10-16T03:16:02.785Z,15.84
2017-10-16T03:18:37.634Z,15.82
2017-10-16T03:21:12.460Z,15.92
2017-10-16T03:23:47.197Z,15.90
2017-10-16T03:26:22.097Z,16.03
2017-10-16T03:28:56.840Z,15.99
2017-10-16T03:31:31.600Z,15.91
2017-10-16T03:34:06.425Z,15.90
2017-10-16T03:36:41.165Z,15.97
2017-10-16T03:39:15.824Z,16.03
2017-10-16T03:41:50.745Z,15.96
2017-10-16T03:44:25.573Z,16.05
2017-10-16T03:47:00.404Z,15.94
2017-10-16T03:49:35.071Z,15.87
2017-10-16T03:52:09.877Z,15.92
2017-10-16T03:54:44.711Z,16.04
2017-10-16T03:57:19.417Z,16.07
2017-10-16T03:59:54.109Z,16.04
2017-10-16T04:02:29.043Z,16.02
2017-10-16T04:05:03.537Z,16.02
2017-10-16T04:07:38.606Z,16.00
2017-10-16T04:10:13.557Z,15.96
2017-10-16T04:12:48.262Z,15.93
2017-10-16T04:15:23.138Z,15.91
2017-10-16T04:17:57.945Z,15.84
2017-10-16T04:20:32.792Z,15.72
2017-10-16T04:23:07.575Z,15.69
2017-10-16T04:25:42.486Z,15.70
2017-10-16T04:28:17.472Z,15.76
2017-10-16T04:30:52.593Z,15.82
2017-10-16T04:33:27.842Z,15.82
2017-10-16T04:36:02.714Z,15.89
2017-10-16T04:38:38.301Z,15.78
2017-10-16T04:41:13.445Z,15.77
2017-10-16T04:43:48.089Z,15.70
2017-10-16T04:46:22.765Z,15.70
2017-10-16T04:48:57.549Z,15.69
2017-10-16T04:51:32.482Z,15.70
2017-10-16T04:54:07.345Z,15.67
2017-10-16T04:56:42.089Z,15.76
2017-10-16T04:59:16.793Z,15.71
2017-10-16T05:01:51.545Z,15.59
2017-10-16T05:04:26.406Z,15.56
2017-10-16T05:07:01.149Z,15.55
2017-10-16T05:09:36.008Z,15.56
2017-10-16T05:12:10.841Z,15.52
2017-10-16T05:14:45.553Z,15.61
2017-10-16T05:17:20.437Z,15.67
2017-10-16T05:19:55.253Z,15.79
2017-10-16T05:22:30.148Z,15.83
2017-10-16T05:25:04.930Z,15.80
2017-10-16T05:27:39.549Z,15.84
2017-10-16T05:30:14.513Z,15.87
2017-10-16T05:32:49.308Z,15.83
2017-10-16T05:35:24.164Z,15.85
2017-10-16T05:37:59.021Z,15.84
2017-10-16T05:40:33.834Z,15.89
2017-10-16T05:43:08.678Z,15.85
2017-10-16T05:45:43.142Z,15.78
2017-10-16T05:48:18.277Z,15.75
2017-10-16T05:50:53.165Z,15.80
2017-10-16T05:53:27.884Z,15.76
2017-10-16T05:56:03.025Z,15.76
2017-10-16T05:58:37.826Z,15.79
2017-10-16T06:01:12.481Z,15.78
2017-10-16T06:03:47.349Z,15.83
2017-10-16T06:06:21.819Z,15.87
2017-10-16T06:08:56.563Z,15.91
2017-10-16T06:11:31.561Z,15.97
2017-10-16T06:14:06.301Z,16.04
2017-10-16T06:16:40.461Z,15.97
2017-10-16T06:19:15.597Z,15.97
2017-10-16T06:21:50.285Z,15.93
2017-10-16T06:24:24.884Z,15.87
2017-10-16T06:26:59.647Z,15.85
2017-10-16T06:29:34.368Z,15.89
2017-10-16T06:32:09.153Z,15.96
2017-10-16T06:34:44.286Z,15.98
2017-10-16T06:37:19.083Z,16.05
2017-10-16T06:39:53.829Z,16.12
2017-10-16T06:42:28.644Z,16.16
2017-10-16T06:45:03.044Z,16.18
2017-10-16T06:47:37.513Z,16.22
2017-10-16T06:50:12.651Z,16.30
2017-10-16T06:52:47.291Z,16.31
2017-10-16T06:55:21.821Z,16.39
2017-10-16T06:57:56.444Z,16.39
2017-10-16T07:00:30.728Z,16.44
2017-10-16T07:03:05.802Z,16.48
2017-10-16T07:05:40.746Z,16.50
2017-10-16T07:08:15.350Z,16.49
2017-10-16T07:10:50.107Z,16.55
2017-10-16T07:13:24.838Z,16.59
2017-10-16T07:15:59.610Z,16.71
2017-10-16T07:18:35.073Z,16.84
2017-10-16T07:21:09.941Z,16.98
2017-10-16T07:23:44.473Z,17.16
2017-10-16T07:26:18.850Z,17.26
2017-10-16T07:28:54.078Z,17.38
2017-10-16T07:31:28.458Z,17.42
2017-10-16T07:34:03.489Z,17.46
2017-10-16T07:36:38.234Z,17.48
2017-10-16T07:39:12.690Z,17.61
2017-10-16T07:41:47.653Z,17.75
2017-10-16T07:44:22.497Z,17.86
2017-10-16T07:46:57.109Z,18.10
2017-10-16T07:49:32.035Z,18.08
2017-10-16T07:52:06.828Z,18.27
2017-10-16T07:54:41.586Z,18.40
2017-10-16T07:57:16.341Z,18.57
2017-10-16T07:59:51.069Z,18.78
2017-10-16T08:02:25.747Z,19.00
2017-10-16T08:05:00.481Z,19.18
2017-10-16T08:07:35.662Z,19.29
2017-10-16T08:10:10.077Z,19.36
2017-10-16T08:12:44.905Z,19.64
2017-10-16T08:15:20.997Z,19.76
2017-10-16T08:17:55.437Z,19.91
2017-10-16T08:20:30.255Z,19.98
2017-10-16T08:23:04.654Z,20.23
2017-10-16T08:25:39.134Z,20.53
2017-10-16T08:28:13.935Z,20.64
2017-10-16T08:30:48.278Z,20.67
2017-10-16T08:33:23.265Z,20.61
2017-10-16T08:35:57.903Z,20.83
2017-10-16T08:38:32.684Z,21.00
2017-10-16T08:41:07.330Z,21.14
2017-10-16T08:43:42.202Z,21.34
2017-10-16T08:46:17.151Z,21.52
2017-10-16T08:48:51.862Z,21.44
2017-10-16T08:51:26.525Z,21.47
2017-10-16T08:54:01.114Z,21.66
2017-10-16T08:56:35.782Z,21.62
2017-10-16T08:59:10.474Z,21.68
2017-10-16T09:01:45.562Z,21.63
2017-10-16T09:04:19.925Z,21.85
2017-10-16T09:06:54.398Z,21.87
2017-10-16T09:09:29.185Z,22.01
2017-10-16T09:12:03.927Z,21.84
2017-10-16T09:14:38.758Z,21.88
2017-10-16T09:17:13.197Z,22.00
2017-10-16T09:19:48.104Z,22.32
2017-10-16T09:22:22.645Z,22.77
2017-10-16T09:24:57.305Z,22.85
2017-10-16T09:27:32.078Z,22.81
2017-10-16T09:30:06.661Z,22.80
2017-10-16T09:32:41.342Z,23.09
2017-10-16T09:35:16.274Z,23.07
2017-10-16T09:37:51.353Z,23.31
2017-10-16T09:40:26.024Z,23.70
2017-10-16T09:43:00.868Z,24.00
2017-10-16T09:45:35.382Z,23.93
2017-10-16T09:48:10.114Z,24.16
2017-10-16T09:50:44.941Z,24.30
2017-10-16T09:53:19.644Z,24.23
2017-10-16T09:55:54.297Z,24.51
2017-10-16T09:58:28.841Z,24.77
2017-10-16T10:01:03.622Z,24.89
2017-10-16T10:03:38.289Z,24.88
2017-10-16T10:06:12.914Z,25.08
2017-10-16T10:08:47.532Z,25.06
2017-10-16T10:11:22.220Z,25.46
2017-10-16T10:13:57.057Z,25.07
2017-10-16T10:16:31.831Z,25.20
2017-10-16T10:19:06.889Z,24.84
2017-10-16T10:21:41.698Z,24.77
2017-10-16T10:24:16.328Z,24.31
2017-10-16T10:26:51.081Z,24.37
2017-10-16T10:29:25.885Z,24.58
2017-10-16T10:32:00.554Z,25.13
2017-10-16T10:34:35.269Z,25.21
2017-10-16T10:37:09.996Z,25.46
2017-10-16T10:39:44.473Z,25.73
2017-10-16T10:42:19.385Z,25.90
2017-10-16T10:44:54.161Z,26.01
2017-10-16T10:47:28.890Z,26.09
2017-10-16T10:50:03.462Z,25.59
2017-10-16T10:52:37.954Z,26.06
2017-10-16T10:55:12.629Z,26.39
2017-10-16T10:57:47.454Z,26.50
2017-10-16T11:00:21.597Z,26.10
2017-10-16T11:02:56.657Z,26.30
2017-10-16T11:05:30.932Z,26.49
2017-10-16T11:08:05.773Z,26.26
2017-10-16T11:10:40.569Z,26.64
2017-10-16T11:13:15.233Z,26.76
2017-10-16T11:15:49.920Z,26.78
2017-10-16T11:18:25.257Z,26.59
2017-10-16T11:20:59.361Z,26.37
2017-10-16T11:23:33.949Z,26.67
2017-10-16T11:26:08.830Z,26.86
2017-10-16T11:28:43.590Z,26.68
2017-10-16T11:31:18.150Z,26.70
2017-10-16T11:33:52.857Z,26.59
2017-10-16T11:36:27.433Z,26.71
2017-10-16T11:39:02.017Z,26.92
2017-10-16T11:41:36.794Z,27.09
2017-10-16T11:44:11.580Z,27.32
2017-10-16T11:46:45.989Z,27.40
2017-10-16T11:49:20.905Z,27.44
2017-10-16T11:51:55.374Z,27.39
2017-10-16T11:54:29.868Z,27.30
2017-10-16T11:57:04.820Z,27.35
2017-10-16T11:59:39.818Z,27.78
2017-10-16T12:02:14.408Z,27.85
2017-10-16T12:04:48.973Z,28.03
2017-10-16T12:07:23.420Z,27.70
2017-10-16T12:09:58.149Z,27.85
2017-10-16T12:12:32.625Z,27.84
2017-10-16T12:15:07.103Z,27.81
2017-10-16T12:17:41.703Z,27.65
2017-10-16T12:20:17.125Z,27.74
2017-10-16T12:22:52.156Z,27.88
2017-10-16T12:25:26.316Z,28.09
2017-10-16T12:28:00.872Z,27.89
2017-10-16T12:30:35.486Z,28.09
2017-10-16T12:33:10.161Z,28.19
2017-10-16T12:35:44.839Z,28.06
2017-10-16T12:38:19.316Z,27.98
2017-10-16T12:40:54.074Z,27.88
2017-10-16T12:43:28.792Z,27.68
2017-10-16T12:46:03.316Z,28.15
2017-10-16T12:48:38.287Z,28.22
2017-10-16T12:51:12.757Z,28.22
2017-10-16T12:53:48.036Z,28.12
2017-10-16T12:56:23.464Z,28.24
2017-10-16T12:58:58.077Z,28.33
2017-10-16T13:01:32.633Z,28.04
2017-10-16T13:04:06.827Z,28.01
2017-10-16T13:06:41.465Z,27.98
2017-10-16T13:09:15.987Z,28.06
2017-10-16T13:11:50.998Z,28.34
2017-10-16T13:14:25.645Z,28.43
2017-10-16T13:17:00.337Z,28.34
2017-10-16T13:19:34.689Z,28.23
2017-10-16T13:22:09.128Z,28.31
2017-10-16T13:24:43.934Z,28.47
2017-10-16T13:27:18.761Z,28.16
2017-10-16T13:29:53.548Z,28.08
2017-10-16T13:32:28.104Z,28.14
2017-10-16T13:35:02.744Z,28.24
2017-10-16T13:37:37.313Z,28.05
2017-10-16T13:40:11.781Z,28.24
2017-10-16T13:42:46.441Z,28.38
2017-10-16T13:45:20.937Z,28.32
2017-10-16T13:47:55.346Z,28.12
2017-10-16T13:50:30.100Z,28.28
2017-10-16T13:53:04.741Z,28.37
2017-10-16T13:55:38.951Z,28.32
2017-10-16T13:58:13.580Z,28.31
2017-10-16T14:00:48.481Z,28.48
2017-10-16T14:03:23.056Z,28.55
2017-10-16T14:05:57.640Z,28.55
2017-10-16T14:08:32.328Z,28.46
2017-10-16T14:11:06.840Z,28.39
2017-10-16T14:13:40.988Z,28.53
2017-10-16T14:16:15.848Z,28.26
2017-10-16T14:18:50.557Z,28.21
2017-10-16T14:21:25.209Z,28.13
2017-10-16T14:23:59.780Z,27.83
2017-10-16T14:26:34.517Z,27.71
2017-10-16T14:29:09.184Z,27.52
2017-10-16T14:31:43.642Z,27.51
2017-10-16T14:34:17.772Z,27.48
2017-10-16T14:36:52.713Z,27.30
2017-10-16T14:39:27.392Z,27.50
2017-10-16T14:42:02.029Z,27.49
2017-10-16T14:44:36.626Z,27.23
2017-10-16T14:47:11.289Z,26.91
2017-10-16T14:49:45.743Z,26.91
2017-10-16T14:52:20.404Z,26.83
2017-10-16T14:54:55.150Z,26.73
2017-10-16T14:57:29.636Z,26.56
2017-10-16T15:00:04.399Z,26.25
2017-10-16T15:02:38.943Z,26.42
2017-10-16T15:05:13.740Z,26.26
2017-10-16T15:07:48.224Z,26.21
2017-10-16T15:10:22.668Z,26.07
2017-10-16T15:12:57.612Z,25.87
2017-10-16T15:15:32.262Z,25.85
2017-10-16T15:18:07.053Z,25.83
2017-10-16T15:20:41.996Z,25.68
2017-10-16T15:23:16.487Z,25.53
2017-10-16T15:25:51.153Z,25.37
2017-10-16T15:28:25.723Z,25.41
2017-10-16T15:30:59.909Z,25.43
2017-10-16T15:33:34.672Z,25.21
2017-10-16T15:36:09.498Z,25.00
2017-10-16T15:38:44.176Z,24.85
2017-10-16T15:41:18.779Z,24.76
2017-10-16T15:43:53.433Z,24.64
2017-10-16T15:46:28.022Z,24.55
2017-10-16T15:49:02.613Z,24.51
2017-10-16T15:51:37.199Z,24.52
2017-10-16T15:54:12.066Z,24.54
2017-10-16T15:56:46.406Z,24.59
2017-10-16T15:59:20.848Z,24.51
2017-10-16T16:01:55.428Z,24.46
2017-10-16T16:04:30.136Z,24.46
2017-10-16T16:07:04.776Z,24.40
2017-10-16T16:09:39.372Z,24.33
2017-10-16T16:12:13.835Z,24.29
2017-10-16T16:14:48.584Z,24.19
2017-10-16T16:17:23.620Z,24.06
2017-10-16T16:19:58.160Z,24.03
2017-10-16T16:22:32.932Z,23.94
2017-10-16T16:25:07.670Z,23.87
2017-10-16T16:27:41.979Z,23.77
2017-10-16T16:30:16.677Z,23.74
2017-10-16T16:32:51.160Z,23.69
2017-10-16T16:35:25.596Z,23.66
2017-10-16T16:38:00.285Z,23.61
2017-10-16T16:40:34.843Z,23.51
2017-10-16T16:43:09.536Z,23.38
2017-10-16T16:45:44.505Z,23.22
2017-10-16T16:48:18.979Z,23.09
2017-10-16T16:50:53.969Z,23.03
2017-10-16T16:53:28.695Z,22.84
2017-10-16T16:56:03.536Z,22.81
2017-10-16T16:58:38.351Z,22.80
2017-10-16T17:01:12.767Z,22.78
2017-10-16T17:03:47.280Z,22.74
2017-10-16T17:06:21.912Z,22.68
2017-10-16T17:08:56.568Z,22.64
2017-10-16T17:11:31.168Z,22.62
2017-10-16T17:14:05.875Z,22.61
2017-10-16T17:16:40.596Z,22.57
2017-10-16T17:19:15.791Z,22.51
2017-10-16T17:21:50.151Z,22.40
2017-10-16T17:24:25.335Z,22.32
2017-10-16T17:26:59.722Z,22.22
2017-10-16T17:29:35.047Z,22.15
2017-10-16T17:32:09.188Z,22.10
2017-10-16T17:34:44.120Z,22.08
2017-10-16T17:37:18.698Z,22.04
2017-10-16T17:39:53.520Z,22.03
2017-10-16T17:42:28.851Z,21.99
2017-10-16T17:45:03.345Z,21.91
2017-10-16T17:47:38.178Z,21.81
2017-10-16T17:50:12.944Z,21.71
2017-10-16T17:52:47.645Z,21.69
2017-10-16T17:55:22.826Z,21.62
2017-10-16T17:57:57.651Z,21.62
2017-10-16T18:00:32.324Z,21.55
2017-10-16T18:03:07.521Z,21.34
2017-10-16T18:05:42.113Z,21.18
2017-10-16T18:08:17.029Z,21.11
2017-10-16T18:10:51.762Z,20.92
2017-10-16T18:13:26.647Z,20.89
2017-10-16T18:16:01.921Z,20.69
2017-10-16T18:18:36.557Z,20.56
2017-10-16T18:21:11.380Z,20.57
2017-10-16T18:23:46.222Z,20.66
2017-10-16T18:26:21.357Z,20.70
2017-10-16T18:28:56.115Z,20.69
2017-10-16T18:31:30.868Z,20.66
2017-10-16T18:34:05.833Z,20.57
2017-10-16T18:36:40.305Z,20.59
2017-10-16T18:39:14.889Z,20.52
2017-10-16T18:41:50.233Z,20.48
2017-10-16T18:44:25.412Z,20.37
2017-10-16T18:47:00.117Z,20.31
2017-10-16T18:49:35.395Z,20.24
2017-10-16T18:52:10.201Z,20.20
2017-10-16T18:54:44.884Z,20.20
2017-10-16T18:57:19.801Z,20.23
2017-10-16T18:59:54.511Z,20.26
2017-10-16T19:02:29.653Z,20.27
2017-10-16T19:05:05.465Z,20.25
2017-10-16T19:07:39.791Z,20.27
2017-10-16T19:10:14.635Z,20.34
2017-10-16T19:12:49.587Z,20.43
2017-10-16T19:15:24.221Z,20.45
2017-10-16T19:17:58.979Z,20.50
2017-10-16T19:20:33.354Z,20.40
2017-10-16T19:23:08.646Z,20.35
2017-10-16T19:25:42.962Z,20.42
2017-10-16T19:28:18.843Z,20.43
2017-10-16T19:30:53.731Z,20.40
2017-10-16T19:33:28.655Z,20.34
2017-10-16T19:36:03.248Z,20.35
2017-10-16T19:38:37.475Z,20.43
2017-10-16T19:41:11.552Z,20.42
2017-10-16T19:43:46.192Z,20.38
2017-10-16T19:46:20.871Z,20.36
2017-10-16T19:48:55.735Z,20.29
2017-10-16T19:51:29.747Z,20.28
2017-10-16T19:54:04.583Z,20.06
2017-10-16T19:56:39.589Z,20.00
2017-10-16T19:59:14.640Z,19.92
2017-10-16T20:01:49.476Z,19.93
2017-10-16T20:04:24.205Z,19.85
2017-10-16T20:06:59.240Z,19.77
2017-10-16T20:09:33.870Z,19.72
2017-10-16T20:12:08.726Z,19.67
2017-10-16T20:14:43.348Z,19.68
2017-10-16T20:17:18.364Z,19.62
2017-10-16T20:19:53.188Z,19.66
2017-10-16T20:22:27.780Z,19.67
2017-10-16T20:25:02.604Z,19.67
2017-10-16T20:27:37.259Z,19.64
2017-10-16T20:30:12.139Z,19.68
2017-10-16T20:32:46.877Z,19.62
2017-10-16T20:35:21.565Z,19.56
2017-10-16T20:37:56.413Z,19.53
2017-10-16T20:40:31.043Z,19.60
2017-10-16T20:43:05.784Z,19.68
2017-10-16T20:45:39.805Z,19.71
2017-10-16T20:48:14.525Z,19.71
2017-10-16T20:50:49.450Z,19.64
2017-10-16T20:53:24.119Z,19.63
2017-10-16T20:55:59.192Z,19.59
2017-10-16T20:58:33.875Z,19.50
2017-10-16T21:01:08.034Z,19.52
2017-10-16T21:03:42.784Z,19.50
2017-10-16T21:06:17.507Z,19.59
2017-10-16T21:08:51.928Z,19.72
2017-10-16T21:11:26.528Z,19.77
2017-10-16T21:14:01.288Z,19.82
2017-10-16T21:16:35.497Z,19.84
2017-10-16T21:19:10.365Z,19.83
2017-10-16T21:21:45.473Z,19.82
2017-10-16T21:24:19.859Z,19.76
2017-10-16T21:26:54.311Z,19.64
2017-10-16T21:29:29.245Z,19.61
2017-10-16T21:32:03.190Z,19.54
2017-10-16T21:34:37.791Z,19.41
2017-10-16T21:37:12.685Z,19.38
2017-10-16T21:39:47.307Z,19.38
2017-10-16T21:42:22.018Z,19.36
2017-10-16T21:44:56.796Z,19.26
2017-10-16T21:47:31.444Z,19.26
2017-10-16T21:50:06.133Z,19.26
2017-10-16T21:52:40.913Z,19.21
2017-10-16T21:55:15.867Z,19.22
2017-10-16T21:57:50.739Z,19.26
2017-10-16T22:00:26.296Z,19.23
2017-10-16T22:03:00.388Z,19.14
2017-10-16T22:05:35.054Z,19.06
2017-10-16T22:08:09.868Z,19.06
2017-10-16T22:10:44.972Z,19.08
2017-10-16T22:13:19.533Z,19.05
2017-10-16T22:15:54.440Z,19.13
2017-10-16T22:18:28.662Z,19.17
2017-10-16T22:21:03.529Z,19.10
2017-10-16T22:23:38.340Z,19.14
2017-10-16T22:26:13.348Z,19.17
2017-10-16T22:28:48.391Z,19.17
2017-10-16T22:31:23.250Z,19.27
2017-10-16T22:33:57.856Z,19.33
2017-10-16T22:36:34.436Z,19.23
2017-10-16T22:39:08.658Z,19.18
2017-10-16T22:41:43.100Z,19.11
2017-10-16T22:44:17.167Z,19.04
2017-10-16T22:46:52.001Z,19.01
2017-10-16T22:49:26.849Z,18.97
2017-10-16T22:52:01.566Z,18.99
2017-10-16T22:54:48.883Z,19.06
2017-10-16T22:57:22.975Z,19.05
2017-10-16T22:59:57.417Z,19.02
2017-10-16T23:02:32.692Z,19.14
2017-10-16T23:05:07.347Z,19.29
2017-10-16T23:07:42.062Z,19.41
2017-10-16T23:10:16.874Z,19.39
2017-10-16T23:12:51.936Z,19.47
2017-10-16T23:15:26.760Z,19.36
2017-10-16T23:18:01.626Z,19.27
2017-10-16T23:20:35.773Z,19.18
2017-10-16T23:23:10.693Z,19.17
2017-10-16T23:25:45.416Z,19.32
2017-10-16T23:28:20.159Z,19.16
2017-10-16T23:30:55.218Z,19.10
2017-10-16T23:33:29.984Z,19.06
2017-10-16T23:36:04.856Z,19.11
2017-10-16T23:38:39.840Z,19.16
2017-10-16T23:41:14.688Z,19.17
2017-10-16T23:43:49.551Z,19.11
2017-10-16T23:46:23.661Z,19.14
2017-10-16T23:48:58.518Z,19.10
2017-10-16T23:51:33.336Z,19.10
2017-10-16T23:54:08.145Z,19.12
2017-10-16T23:56:42.926Z,19.06
2017-10-16T23:59:17.387Z,19.08
